Time;durP1;ratioP1;P1;durP2;ratioP2;P2;SDS_P1;SDS_P2;PMS_P1;PMS_P2;Temp;Humidity;BMP_temperature;BMP_pressure;BME280_temperature;BME280_humidity;BME280_pressure;Samples;Min_cycle;Max_cycle;Signal;HPM_P1;HPM_P2
2024/01/15 00:02:09;;;;;;;4.72;2.90;;;19.00;49.90;;;;;;5068861;28;20028;-51
2024/01/15 00:04:39;;;;;;;5.90;3.17;;;19.00;49.80;;;;;;5071004;28;20109;-50
2024/01/15 00:07:05;;;;;;;5.30;2.95;;;19.00;50.10;;;;;;5069020;28;20028;-55
2024/01/15 00:09:31;;;;;;;7.75;3.00;;;19.00;50.10;;;;;;5067213;28;20036;-50
2024/01/15 00:11:57;;;;;;;8.70;3.47;;;19.00;50.00;;;;;;5067298;28;20035;-52
2024/01/15 00:14:23;;;;;;;4.13;2.60;;;19.00;50.10;;;;;;5067592;28;20035;-55
2024/01/15 00:16:51;;;;;;;7.47;3.08;;;19.00;50.00;;;;;;5072015;28;20562;-50
2024/01/15 00:19:17;;;;;;;4.25;2.90;;;19.00;50.30;;;;;;5067106;28;20028;-55
2024/01/15 00:21:44;;;;;;;5.93;3.00;;;19.00;50.00;;;;;;5072145;28;20402;-49
2024/01/15 00:24:10;;;;;;;6.88;2.90;;;19.00;50.10;;;;;;5066300;28;20032;-51
2024/01/15 00:26:36;;;;;;;3.95;2.70;;;19.00;50.50;;;;;;5067510;28;20029;-53
2024/01/15 00:29:03;;;;;;;5.07;2.90;;;19.00;50.10;;;;;;5067220;28;20478;-49
2024/01/15 00:31:29;;;;;;;4.15;2.67;;;19.00;50.10;;;;;;5067516;28;20032;-54
2024/01/15 00:33:57;;;;;;;4.88;3.05;;;19.00;51.00;;;;;;5073425;28;20024;-52
2024/01/15 00:36:23;;;;;;;6.32;3.17;;;19.00;50.10;;;;;;5072705;28;20036;-55
2024/01/15 00:38:49;;;;;;;4.38;2.38;;;19.00;49.90;;;;;;5069173;28;20025;-53
2024/01/15 00:41:15;;;;;;;3.83;2.60;;;19.00;50.30;;;;;;5068048;28;20041;-55
2024/01/15 00:43:41;;;;;;;3.80;2.67;;;19.00;50.00;;;;;;5067253;28;20021;-50
2024/01/15 00:46:07;;;;;;;7.55;3.10;;;19.00;50.90;;;;;;5067525;28;20431;-51
2024/01/15 00:48:33;;;;;;;4.57;2.80;;;19.00;50.60;;;;;;5067979;28;20033;-53
2024/01/15 00:50:58;;;;;;;4.00;2.63;;;19.00;50.30;;;;;;5066707;28;20040;-50
2024/01/15 00:53:28;;;;;;;4.95;2.38;;;19.00;50.70;;;;;;5067347;28;20432;-53
2024/01/15 00:55:54;;;;;;;5.15;2.42;;;19.00;50.40;;;;;;5075101;28;20021;-54
2024/01/15 00:58:19;;;;;;;4.15;2.67;;;19.00;50.10;;;;;;5053236;28;20025;-49
2024/01/15 01:00:45;;;;;;;4.20;2.60;;;19.00;50.20;;;;;;5067572;28;20029;-49
2024/01/15 01:03:11;;;;;;;6.97;2.67;;;19.00;51.30;;;;;;5073728;28;20020;-55
2024/01/15 01:05:37;;;;;;;4.05;2.60;;;19.00;50.60;;;;;;5069994;28;20031;-52
2024/01/15 01:08:03;;;;;;;6.93;2.58;;;19.00;50.70;;;;;;5067384;28;20448;-53
2024/01/15 01:10:29;;;;;;;5.18;2.90;;;19.00;50.60;;;;;;5067331;28;20094;-54
2024/01/15 01:12:55;;;;;;;3.95;2.60;;;19.00;50.10;;;;;;5072598;28;20479;-49
2024/01/15 01:15:21;;;;;;;6.05;2.53;;;19.00;50.50;;;;;;5073033;28;20033;-58
2024/01/15 01:17:47;;;;;;;4.15;2.55;;;19.00;50.80;;;;;;5065345;28;20032;-51
2024/01/15 01:20:15;;;;;;;4.28;2.65;;;19.00;50.80;;;;;;5068686;28;20084;-49
2024/01/15 01:22:41;;;;;;;5.35;2.60;;;19.00;50.80;;;;;;5068805;28;20611;-58
2024/01/15 01:25:07;;;;;;;6.18;2.42;;;19.00;50.60;;;;;;5070621;28;20134;-52
2024/01/15 01:27:33;;;;;;;5.25;2.50;;;19.00;51.00;;;;;;5070394;28;20400;-50
2024/01/15 01:29:59;;;;;;;4.40;2.67;;;19.00;50.90;;;;;;5067488;28;20463;-56
2024/01/15 01:32:25;;;;;;;3.75;2.60;;;19.00;50.50;;;;;;5049899;28;20021;-52
2024/01/15 01:34:51;;;;;;;4.70;2.47;;;19.00;50.60;;;;;;5070831;28;20027;-49
2024/01/15 01:37:16;;;;;;;5.53;2.33;;;19.00;51.00;;;;;;5068330;28;20025;-51
2024/01/15 01:39:43;;;;;;;3.72;2.42;;;19.00;50.90;;;;;;5069105;28;20251;-51
2024/01/15 01:42:09;;;;;;;6.80;2.65;;;19.00;50.70;;;;;;5069076;28;20032;-49
2024/01/15 01:44:35;;;;;;;4.82;2.45;;;19.00;51.00;;;;;;5068389;28;20040;-57
2024/01/15 01:47:01;;;;;;;4.85;2.40;;;19.00;50.50;;;;;;5067632;28;20081;-53
2024/01/15 01:49:28;;;;;;;4.35;2.40;;;19.10;51.10;;;;;;5068793;28;20107;-49
2024/01/15 01:51:57;;;;;;;3.90;2.58;;;19.10;51.00;;;;;;5057572;28;20073;-55
2024/01/15 01:54:24;;;;;;;11.05;2.45;;;19.10;50.90;;;;;;5046234;28;20021;-55
2024/01/15 01:56:51;;;;;;;7.30;2.53;;;19.00;51.30;;;;;;5068845;28;20032;-56
2024/01/15 01:59:17;;;;;;;3.60;2.47;;;19.00;51.10;;;;;;5067382;28;20383;-51
2024/01/15 02:01:44;;;;;;;3.53;2.50;;;19.00;50.80;;;;;;5068132;28;20021;-50
2024/01/15 02:04:11;;;;;;;4.03;2.38;;;19.00;51.10;;;;;;5068027;28;20058;-54
2024/01/15 02:06:37;;;;;;;4.57;2.28;;;19.00;50.90;;;;;;5056921;28;20029;-49
2024/01/15 02:09:05;;;;;;;4.65;2.40;;;19.00;51.10;;;;;;5067176;28;20028;-53
2024/01/15 02:11:31;;;;;;;3.17;2.30;;;19.00;51.20;;;;;;5070021;28;20116;-55
2024/01/15 02:13:57;;;;;;;3.63;2.35;;;19.00;50.90;;;;;;5067131;28;20475;-54
2024/01/15 02:16:23;;;;;;;4.70;2.40;;;19.00;51.20;;;;;;5069155;28;20050;-58
2024/01/15 02:18:49;;;;;;;10.15;2.60;;;19.00;51.10;;;;;;5069636;28;20029;-54
2024/01/15 02:21:15;;;;;;;3.92;2.22;;;19.00;51.00;;;;;;5069901;28;20036;-49
2024/01/15 02:23:41;;;;;;;3.75;2.00;;;19.00;51.00;;;;;;5068043;28;20052;-57
2024/01/15 02:26:08;;;;;;;3.58;2.13;;;19.00;51.20;;;;;;5073703;28;20075;-57
2024/01/15 02:28:34;;;;;;;3.03;2.00;;;19.00;51.00;;;;;;5067700;28;20049;-54
2024/01/15 02:31:00;;;;;;;4.18;2.38;;;19.00;50.90;;;;;;5066734;28;20132;-55
2024/01/15 02:33:26;;;;;;;3.35;2.20;;;19.00;51.20;;;;;;5067161;28;20243;-54
2024/01/15 02:35:51;;;;;;;5.45;2.25;;;19.00;50.70;;;;;;5067902;28;20395;-50
2024/01/15 02:38:17;;;;;;;3.78;2.30;;;19.00;51.40;;;;;;5067561;28;20492;-51
2024/01/15 02:40:45;;;;;;;4.10;2.40;;;19.00;51.10;;;;;;5067330;28;20158;-48
2024/01/15 02:43:11;;;;;;;9.43;2.30;;;19.00;51.40;;;;;;5068434;28;20078;-57
2024/01/15 02:45:37;;;;;;;4.82;2.25;;;19.10;51.40;;;;;;5105211;22;20044;-57
2024/01/15 02:48:03;;;;;;;3.35;2.17;;;19.00;51.20;;;;;;5085307;28;20032;-58
2024/01/15 02:50:29;;;;;;;3.47;2.13;;;19.10;51.00;;;;;;5082073;28;20033;-57
2024/01/15 02:52:54;;;;;;;6.95;2.30;;;19.10;50.80;;;;;;5095602;28;20047;-55
2024/01/15 02:55:20;;;;;;;3.92;2.33;;;19.10;50.70;;;;;;5097256;28;20459;-57
2024/01/15 02:57:46;;;;;;;14.82;2.95;;;19.10;50.70;;;;;;5100376;28;20101;-58
2024/01/15 03:00:12;;;;;;;6.10;2.50;;;19.10;51.10;;;;;;5092310;28;20487;-58
2024/01/15 03:02:39;;;;;;;3.92;2.25;;;19.10;51.80;;;;;;5091676;28;20020;-57
2024/01/15 03:05:07;;;;;;;15.05;2.80;;;19.00;51.60;;;;;;5092487;28;20035;-58
2024/01/15 03:07:33;;;;;;;3.65;2.30;;;19.00;51.60;;;;;;5100515;28;20123;-57
2024/01/15 03:09:59;;;;;;;5.15;2.42;;;19.00;51.90;;;;;;5108290;28;20557;-57
2024/01/15 03:12:25;;;;;;;3.13;1.73;;;19.00;51.50;;;;;;5095714;28;20020;-57
2024/01/15 03:14:51;;;;;;;3.85;2.20;;;19.00;51.40;;;;;;5103529;28;20399;-57
2024/01/15 03:17:17;;;;;;;3.50;2.17;;;19.00;51.30;;;;;;5100520;28;20024;-56
2024/01/15 03:19:43;;;;;;;5.20;2.08;;;19.00;51.50;;;;;;5099154;28;20499;-57
2024/01/15 03:22:08;;;;;;;3.65;2.10;;;19.00;51.70;;;;;;5100225;28;20030;-57
2024/01/15 03:24:35;;;;;;;6.88;1.88;;;19.00;52.20;;;;;;5098999;28;20127;-58
2024/01/15 03:27:01;;;;;;;2.80;1.92;;;19.00;51.90;;;;;;5100405;28;20285;-57
2024/01/15 03:29:27;;;;;;;3.88;2.05;;;19.00;51.20;;;;;;5098265;28;20027;-56
2024/01/15 03:31:53;;;;;;;4.82;2.00;;;19.00;52.20;;;;;;5090935;28;20633;-57
2024/01/15 03:34:18;;;;;;;3.45;1.90;;;19.00;51.60;;;;;;5091333;28;20054;-57
2024/01/15 03:36:44;;;;;;;3.72;2.45;;;18.90;51.50;;;;;;5099267;28;20153;-57
2024/01/15 03:39:10;;;;;;;3.80;2.03;;;19.00;51.80;;;;;;5100163;28;20039;-56
2024/01/15 03:41:36;;;;;;;5.50;2.28;;;18.90;51.60;;;;;;5097548;28;20487;-57
2024/01/15 03:44:02;;;;;;;4.95;2.10;;;19.00;52.10;;;;;;5098870;28;20024;-57
2024/01/15 03:46:28;;;;;;;3.50;1.90;;;19.00;51.60;;;;;;5102071;28;20076;-57
2024/01/15 03:48:54;;;;;;;2.78;2.20;;;19.00;51.50;;;;;;5102176;28;20385;-57
2024/01/15 03:51:20;;;;;;;3.33;2.03;;;19.00;51.60;;;;;;5092395;28;20495;-57
2024/01/15 03:53:46;;;;;;;3.42;1.70;;;19.00;52.10;;;;;;5102813;28;20145;-57
2024/01/15 03:56:12;;;;;;;2.85;1.50;;;19.00;52.20;;;;;;5102304;28;20089;-57
2024/01/15 03:58:38;;;;;;;4.32;2.10;;;19.00;52.20;;;;;;5102225;28;20020;-57
2024/01/15 04:01:08;;;;;;;7.32;2.35;;;19.00;51.60;;;;;;5091409;28;20383;-57
2024/01/15 04:03:34;;;;;;;3.05;2.05;;;19.00;51.70;;;;;;5091173;28;20117;-58
2024/01/15 04:06:00;;;;;;;3.28;2.35;;;19.00;52.30;;;;;;5099303;28;20506;-55
2024/01/15 04:08:26;;;;;;;3.33;2.10;;;19.00;51.10;;;;;;5098611;28;20028;-56
2024/01/15 04:10:51;;;;;;;3.40;1.90;;;19.00;51.60;;;;;;5097103;28;20103;-53
2024/01/15 04:13:17;;;;;;;4.55;1.80;;;19.00;52.30;;;;;;5100767;28;20051;-55
2024/01/15 04:15:43;;;;;;;5.53;2.05;;;19.00;52.10;;;;;;5095632;28;20024;-55
2024/01/15 04:18:09;;;;;;;5.43;2.00;;;19.00;52.80;;;;;;5098430;28;20024;-58
2024/01/15 04:20:34;;;;;;;2.95;1.80;;;19.00;52.00;;;;;;5098456;28;20028;-55
2024/01/15 04:23:00;;;;;;;4.97;2.10;;;19.00;52.30;;;;;;5098283;28;20028;-58
2024/01/15 04:25:26;;;;;;;4.15;2.00;;;19.00;52.00;;;;;;5097488;28;20039;-57
2024/01/15 04:27:52;;;;;;;4.35;2.28;;;18.90;51.70;;;;;;5095771;28;20028;-57
2024/01/15 04:30:17;;;;;;;5.95;2.03;;;19.00;51.90;;;;;;5095825;28;20395;-56
2024/01/15 04:32:43;;;;;;;5.22;1.85;;;19.00;52.10;;;;;;5101995;28;20032;-57
2024/01/15 04:35:09;;;;;;;4.78;2.10;;;18.90;51.90;;;;;;5097152;28;20055;-56
2024/01/15 04:37:35;;;;;;;5.20;2.30;;;19.00;51.30;;;;;;5098066;28;20108;-57
2024/01/15 04:40:00;;;;;;;4.75;2.10;;;19.00;51.40;;;;;;5102344;28;20052;-58
2024/01/15 04:42:26;;;;;;;4.97;1.77;;;19.00;50.70;;;;;;5100696;28;20520;-54
2024/01/15 04:44:52;;;;;;;4.43;2.17;;;19.00;51.30;;;;;;5080330;28;20440;-57
2024/01/15 04:47:18;;;;;;;5.13;2.03;;;19.00;51.30;;;;;;5097800;28;20506;-57
2024/01/15 04:49:43;;;;;;;2.55;1.85;;;19.00;51.40;;;;;;5097146;28;20430;-58
2024/01/15 04:52:10;;;;;;;2.35;1.80;;;19.00;50.80;;;;;;5090612;28;20489;-57
2024/01/15 04:54:36;;;;;;;3.22;2.15;;;19.00;51.00;;;;;;5094331;28;20369;-58
2024/01/15 04:57:02;;;;;;;2.97;2.00;;;19.00;50.90;;;;;;5094403;28;20051;-57
2024/01/15 04:59:28;;;;;;;2.95;1.90;;;19.00;50.70;;;;;;5106357;28;20347;-58
2024/01/15 05:01:55;;;;;;;5.28;2.35;;;19.10;50.60;;;;;;5105366;28;20047;-57
2024/01/15 05:04:21;;;;;;;2.95;1.98;;;19.10;50.60;;;;;;5102758;28;20024;-56
2024/01/15 05:06:46;;;;;;;4.10;2.25;;;19.10;50.70;;;;;;5101499;28;20080;-58
2024/01/15 05:09:13;;;;;;;4.95;2.40;;;19.00;50.70;;;;;;5103738;28;20024;-58
2024/01/15 05:11:39;;;;;;;3.35;2.20;;;19.10;51.00;;;;;;5100589;28;20032;-58
2024/01/15 05:14:05;;;;;;;5.13;2.28;;;19.00;51.20;;;;;;5102170;28;20031;-59
2024/01/15 05:16:31;;;;;;;3.83;2.30;;;19.10;50.40;;;;;;5088616;28;20028;-55
2024/01/15 05:18:57;;;;;;;3.83;2.17;;;19.10;50.80;;;;;;5105095;28;20020;-58
2024/01/15 05:21:22;;;;;;;4.68;2.28;;;19.10;51.30;;;;;;5098103;28;20026;-59
2024/01/15 05:23:48;;;;;;;4.32;2.35;;;19.10;50.60;;;;;;5105050;28;20028;-57
2024/01/15 05:26:14;;;;;;;3.75;2.20;;;19.00;50.80;;;;;;5098091;28;20436;-58
2024/01/15 05:28:43;;;;;;;5.72;2.30;;;19.10;50.40;;;;;;5105847;28;20455;-57
2024/01/15 05:31:09;;;;;;;5.53;2.23;;;19.00;50.70;;;;;;5106029;28;20170;-58
2024/01/15 05:33:35;;;;;;;5.15;2.58;;;19.00;50.50;;;;;;5104933;28;20028;-57
2024/01/15 05:36:01;;;;;;;3.35;2.30;;;19.10;50.40;;;;;;5104779;28;20064;-57
2024/01/15 05:38:27;;;;;;;4.80;2.60;;;19.10;50.60;;;;;;5099924;28;20699;-57
2024/01/15 05:40:53;;;;;;;5.05;2.33;;;19.10;50.70;;;;;;5101021;28;20066;-58
2024/01/15 05:43:19;;;;;;;6.85;2.40;;;19.10;50.50;;;;;;5103237;28;20024;-57
2024/01/15 05:45:45;;;;;;;4.40;2.25;;;19.10;51.40;;;;;;5094835;28;20024;-58
2024/01/15 05:48:12;;;;;;;5.45;2.42;;;19.10;51.40;;;;;;5101820;28;20042;-56
2024/01/15 05:50:38;;;;;;;3.85;2.17;;;19.10;51.40;;;;;;5079712;28;20390;-56
2024/01/15 05:53:04;;;;;;;4.85;2.60;;;19.10;50.70;;;;;;5094598;28;20032;-55
2024/01/15 05:55:29;;;;;;;4.68;2.38;;;19.10;50.70;;;;;;5104404;28;20031;-53
2024/01/15 05:57:55;;;;;;;4.30;2.42;;;19.10;50.60;;;;;;5103284;28;20020;-57
2024/01/15 06:00:21;;;;;;;4.22;2.33;;;19.10;51.10;;;;;;5092645;28;20024;-57
2024/01/15 06:02:47;;;;;;;5.72;2.40;;;19.10;50.80;;;;;;5092784;28;20062;-58
2024/01/15 06:05:13;;;;;;;4.50;2.38;;;19.10;50.60;;;;;;5092936;28;20226;-54
2024/01/15 06:07:38;;;;;;;4.15;2.38;;;19.10;50.80;;;;;;5076735;28;20051;-55
2024/01/15 06:10:05;;;;;;;4.80;2.22;;;19.10;50.50;;;;;;5101890;28;20039;-57
2024/01/15 06:12:32;;;;;;;5.15;2.60;;;19.10;50.40;;;;;;5100751;28;20020;-58
2024/01/15 06:14:57;;;;;;;5.65;2.38;;;19.10;50.40;;;;;;5099136;28;20017;-58
2024/01/15 06:17:23;;;;;;;5.57;2.65;;;19.00;50.50;;;;;;5101002;28;20027;-57
2024/01/15 06:19:49;;;;;;;6.07;2.63;;;19.10;50.60;;;;;;5108168;28;20470;-58
2024/01/15 06:22:15;;;;;;;4.63;2.28;;;19.10;51.30;;;;;;5102228;28;20077;-58
2024/01/15 06:24:41;;;;;;;4.30;2.35;;;19.10;51.20;;;;;;5091625;28;20509;-56
2024/01/15 06:27:07;;;;;;;5.03;2.38;;;19.10;50.90;;;;;;5092942;28;20028;-57
2024/01/15 06:29:32;;;;;;;4.25;2.00;;;19.00;51.00;;;;;;5097698;28;20027;-57
2024/01/15 06:31:58;;;;;;;6.13;2.60;;;19.00;51.50;;;;;;5106388;28;20024;-57
2024/01/15 06:34:24;;;;;;;5.70;2.60;;;19.00;50.90;;;;;;5102816;28;20056;-58
2024/01/15 06:36:50;;;;;;;3.67;2.30;;;19.00;51.20;;;;;;5093217;28;20073;-56
2024/01/15 06:39:16;;;;;;;6.68;2.80;;;19.10;51.00;;;;;;5102041;28;20394;-56
2024/01/15 06:41:43;;;;;;;6.63;3.08;;;19.10;50.60;;;;;;5103275;28;20068;-57
2024/01/15 06:44:10;;;;;;;3.45;2.20;;;19.10;50.70;;;;;;5101349;28;20510;-55
2024/01/15 06:46:36;;;;;;;5.32;2.50;;;19.10;51.20;;;;;;5092769;28;20505;-56
2024/01/15 06:49:02;;;;;;;5.60;2.67;;;19.10;50.60;;;;;;5100643;28;20031;-56
2024/01/15 06:51:29;;;;;;;5.15;2.45;;;19.00;50.90;;;;;;5079203;28;20070;-57
2024/01/15 06:53:55;;;;;;;5.10;2.70;;;19.10;50.60;;;;;;5098660;28;20345;-58
2024/01/15 06:56:21;;;;;;;6.00;2.53;;;19.10;50.60;;;;;;5091984;28;20027;-58
2024/01/15 06:58:46;;;;;;;5.07;2.67;;;19.10;50.80;;;;;;5092091;28;20020;-56
2024/01/15 07:01:12;;;;;;;4.90;2.55;;;19.10;50.70;;;;;;5101773;28;20027;-58
2024/01/15 07:03:38;;;;;;;8.82;2.75;;;19.10;50.20;;;;;;5098198;28;20020;-57
2024/01/15 07:06:05;;;;;;;6.18;2.70;;;19.10;50.60;;;;;;5101691;28;20103;-58
2024/01/15 07:08:31;;;;;;;5.78;2.60;;;19.10;50.60;;;;;;5099742;28;20431;-58
2024/01/15 07:10:57;;;;;;;4.45;2.00;;;19.10;50.60;;;;;;5089671;28;20103;-57
2024/01/15 07:13:22;;;;;;;5.55;2.53;;;19.10;50.80;;;;;;5103664;28;20023;-57
2024/01/15 07:15:48;;;;;;;7.47;3.00;;;19.10;50.50;;;;;;5094951;28;20028;-58
2024/01/15 07:18:14;;;;;;;5.68;2.53;;;19.00;50.80;;;;;;5097473;28;20034;-55
2024/01/15 07:20:40;;;;;;;5.93;2.70;;;19.10;50.70;;;;;;5098875;28;20112;-55
2024/01/15 07:23:06;;;;;;;5.75;2.30;;;19.10;50.50;;;;;;5100396;28;20441;-56
2024/01/15 07:25:32;;;;;;;5.38;2.50;;;19.10;50.40;;;;;;5095878;28;20023;-56
2024/01/15 07:27:58;;;;;;;6.25;2.85;;;19.00;50.50;;;;;;5102753;28;20349;-55
2024/01/15 07:30:24;;;;;;;6.75;2.60;;;19.10;50.50;;;;;;5095532;28;20140;-55
2024/01/15 07:32:49;;;;;;;4.85;2.47;;;19.10;51.10;;;;;;5089443;28;20027;-54
2024/01/15 07:35:16;;;;;;;5.18;2.85;;;19.10;50.50;;;;;;5099495;28;20128;-55
2024/01/15 07:37:42;;;;;;;6.13;2.85;;;19.10;50.50;;;;;;5091272;28;20391;-56
2024/01/15 07:40:08;;;;;;;7.20;3.20;;;19.10;50.60;;;;;;5090871;28;20032;-53
2024/01/15 07:42:35;;;;;;;6.25;2.83;;;19.10;50.30;;;;;;5090705;28;20459;-54
2024/01/15 07:45:01;;;;;;;8.10;2.88;;;19.10;51.00;;;;;;5090789;28;20028;-58
2024/01/15 07:47:27;;;;;;;15.18;2.90;;;19.10;51.30;;;;;;5090953;28;20035;-55
2024/01/15 07:49:53;;;;;;;3.55;2.35;;;19.10;51.70;;;;;;5098016;28;20039;-58
2024/01/15 07:52:19;;;;;;;12.18;2.70;;;19.10;51.40;;;;;;5094287;28;20016;-58
2024/01/15 07:54:45;;;;;;;6.32;2.95;;;19.10;50.80;;;;;;5098408;28;20351;-59
2024/01/15 07:57:11;;;;;;;17.75;2.80;;;19.20;50.20;;;;;;5099899;28;20057;-55
2024/01/15 07:59:37;;;;;;;8.63;2.70;;;19.20;50.20;;;;;;5090604;28;20027;-57
2024/01/15 08:02:03;;;;;;;5.55;3.03;;;19.20;50.20;;;;;;5099141;28;20032;-57
2024/01/15 08:04:29;;;;;;;5.55;2.65;;;19.20;50.00;;;;;;5102319;28;20103;-57
2024/01/15 08:06:56;;;;;;;5.60;2.60;;;19.20;49.90;;;;;;5097851;28;20034;-55
2024/01/15 08:09:22;;;;;;;6.82;2.92;;;19.20;49.80;;;;;;5095633;28;20020;-55
2024/01/15 08:11:51;;;;;;;6.43;2.70;;;19.20;49.70;;;;;;5090297;28;20472;-56
2024/01/15 08:14:18;;;;;;;9.65;3.83;;;19.20;50.00;;;;;;5098102;28;20024;-58
2024/01/15 08:16:43;;;;;;;19.67;3.33;;;19.20;50.50;;;;;;5100346;28;20034;-56
2024/01/15 08:19:09;;;;;;;5.90;2.53;;;19.20;50.30;;;;;;5097652;28;20202;-55
2024/01/15 08:21:35;;;;;;;10.23;3.05;;;19.30;50.20;;;;;;5101398;28;20058;-56
2024/01/15 08:24:04;;;;;;;12.32;3.20;;;19.20;50.20;;;;;;5103447;28;20035;-55
2024/01/15 08:26:30;;;;;;;21.52;3.28;;;19.20;50.50;;;;;;5088095;28;20490;-53
2024/01/15 08:28:56;;;;;;;11.15;2.67;;;19.20;51.50;;;;;;5089437;28;20073;-54
2024/01/15 08:31:23;;;;;;;13.88;3.00;;;19.20;53.40;;;;;;5100014;28;20036;-56
2024/01/15 08:33:48;;;;;;;9.68;3.20;;;19.20;51.60;;;;;;5110731;28;20054;-55
2024/01/15 08:36:14;;;;;;;11.82;3.03;;;19.20;51.20;;;;;;5110790;28;20469;-54
2024/01/15 08:38:40;;;;;;;9.90;2.70;;;19.20;51.40;;;;;;5110801;28;20027;-54
2024/01/15 08:41:08;;;;;;;14.55;3.47;;;19.20;51.50;;;;;;5080744;28;20111;-57
2024/01/15 08:43:34;;;;;;;11.77;3.25;;;19.20;51.90;;;;;;5071906;28;20038;-58
2024/01/15 08:46:00;;;;;;;16.00;3.40;;;19.20;51.90;;;;;;5095466;22;20048;-50
2024/01/15 08:48:27;;;;;;;10.15;3.60;;;19.30;52.80;;;;;;5082944;28;20043;-56
2024/01/15 08:50:54;;;;;;;10.73;3.47;;;19.30;52.10;;;;;;5069274;28;20028;-50
2024/01/15 08:53:20;;;;;;;11.02;3.28;;;19.30;52.30;;;;;;5067109;28;20025;-53
2024/01/15 08:55:46;;;;;;;10.70;3.33;;;19.30;51.70;;;;;;5078308;28;20107;-52
2024/01/15 08:58:12;;;;;;;20.75;3.75;;;19.40;52.40;;;;;;5086709;28;20021;-53
2024/01/15 09:00:37;;;;;;;8.23;3.45;;;19.40;52.40;;;;;;5082134;28;20086;-47
2024/01/15 09:03:03;;;;;;;13.00;3.47;;;19.50;53.10;;;;;;5067130;28;20640;-47
2024/01/15 09:05:29;;;;;;;13.05;3.63;;;19.60;54.00;;;;;;5075398;28;20104;-47
2024/01/15 09:07:55;;;;;;;9.50;3.38;;;19.60;54.80;;;;;;5087005;28;20464;-47
2024/01/15 09:10:21;;;;;;;19.42;3.75;;;19.70;55.50;;;;;;5083992;28;20068;-47
2024/01/15 09:12:49;;;;;;;11.18;3.72;;;19.80;54.00;;;;;;5066707;28;20472;-51
2024/01/15 09:15:15;;;;;;;12.07;3.80;;;19.80;54.50;;;;;;5073210;28;20103;-53
2024/01/15 09:17:40;;;;;;;13.13;4.10;;;19.90;56.50;;;;;;5087059;28;20012;-52
2024/01/15 09:20:08;;;;;;;18.92;3.97;;;19.90;56.70;;;;;;5086505;28;20537;-50
2024/01/15 09:22:33;;;;;;;12.18;3.25;;;19.90;55.20;;;;;;5067305;28;20043;-52
2024/01/15 09:24:59;;;;;;;9.52;3.40;;;19.90;54.10;;;;;;5070643;28;20424;-51
2024/01/15 09:27:28;;;;;;;8.10;3.22;;;19.90;54.60;;;;;;5086837;28;20028;-50
2024/01/15 09:29:54;;;;;;;9.90;3.72;;;19.90;53.70;;;;;;5084423;28;20074;-55
2024/01/15 09:32:20;;;;;;;13.70;3.50;;;19.80;54.00;;;;;;5068294;28;20024;-53
2024/01/15 09:34:46;;;;;;;12.07;3.50;;;19.80;53.80;;;;;;5064296;28;20032;-54
2024/01/15 09:37:14;;;;;;;12.55;3.30;;;19.80;53.90;;;;;;5074665;28;20054;-54
2024/01/15 09:39:40;;;;;;;10.68;3.88;;;19.80;53.70;;;;;;5088568;28;20211;-50
2024/01/15 09:42:06;;;;;;;8.00;3.30;;;19.80;53.80;;;;;;5066365;28;20111;-49
2024/01/15 09:44:32;;;;;;;11.07;3.40;;;19.80;53.90;;;;;;5068402;28;20032;-51
2024/01/15 09:46:57;;;;;;;10.20;3.15;;;19.80;53.90;;;;;;5085961;28;20032;-54
2024/01/15 09:49:23;;;;;;;10.07;3.22;;;19.80;53.80;;;;;;5077051;28;20095;-54
2024/01/15 09:51:49;;;;;;;10.88;3.55;;;19.80;53.80;;;;;;5086815;28;20487;-54
2024/01/15 09:54:17;;;;;;;7.80;3.17;;;19.80;53.60;;;;;;5090175;28;20023;-53
2024/01/15 09:56:46;;;;;;;16.08;3.90;;;19.80;53.70;;;;;;5076309;28;20100;-55
2024/01/15 09:59:24;;;;;;;9.23;3.28;;;19.80;53.70;;;;;;5069925;28;20020;-54
2024/01/15 10:01:50;;;;;;;7.43;3.05;;;19.80;53.50;;;;;;5086635;28;20399;-51
2024/01/15 10:04:16;;;;;;;8.88;3.10;;;19.70;53.40;;;;;;5090135;28;20047;-50
2024/01/15 10:06:48;;;;;;;6.65;2.92;;;19.80;53.40;;;;;;5076426;28;20543;-54
2024/01/15 10:09:17;;;;;;;14.18;3.35;;;19.70;53.50;;;;;;5069715;28;20494;-51
2024/01/15 10:11:43;;;;;;;6.70;2.77;;;19.70;53.70;;;;;;5085505;28;20474;-51
2024/01/15 10:14:12;;;;;;;12.93;3.38;;;19.70;54.00;;;;;;5087781;28;20074;-53
2024/01/15 10:16:42;;;;;;;15.27;3.28;;;19.70;53.40;;;;;;5077241;28;20048;-50
2024/01/15 10:19:08;;;;;;;10.77;2.97;;;19.70;54.20;;;;;;5081969;28;20020;-56
2024/01/15 10:21:35;;;;;;;9.75;3.10;;;19.70;53.50;;;;;;5086435;28;20168;-57
2024/01/15 10:24:02;;;;;;;9.40;3.08;;;19.70;53.60;;;;;;5085630;28;20413;-54
2024/01/15 10:26:28;;;;;;;9.40;3.33;;;19.70;54.20;;;;;;5081399;28;20110;-53
2024/01/15 10:28:54;;;;;;;10.93;3.10;;;19.70;53.70;;;;;;5087244;28;20489;-55
2024/01/15 10:31:21;;;;;;;13.02;3.03;;;19.70;54.20;;;;;;5075955;28;20059;-54
2024/01/15 10:33:50;;;;;;;10.70;2.75;;;19.70;53.60;;;;;;5067498;28;20040;-58
2024/01/15 10:36:17;;;;;;;11.20;3.40;;;19.70;53.70;;;;;;5074898;28;20036;-55
2024/01/15 10:38:44;;;;;;;10.30;3.40;;;19.70;53.50;;;;;;5087315;28;20016;-55
2024/01/15 10:41:10;;;;;;;12.75;3.47;;;19.70;53.30;;;;;;5077946;28;20107;-56
2024/01/15 10:43:35;;;;;;;10.23;3.00;;;19.70;53.40;;;;;;5067273;28;20109;-56
2024/01/15 10:46:02;;;;;;;11.23;2.95;;;19.70;53.50;;;;;;5075808;28;20045;-54
2024/01/15 10:48:30;;;;;;;9.43;3.22;;;19.70;53.20;;;;;;5064066;28;20040;-57
2024/01/15 10:50:58;;;;;;;11.85;3.08;;;19.70;53.50;;;;;;5073269;28;20079;-56
2024/01/15 10:53:27;;;;;;;8.38;2.70;;;19.70;53.20;;;;;;5069098;28;20024;-58
2024/01/15 10:55:54;;;;;;;26.77;3.20;;;19.70;53.70;;;;;;5076039;28;20026;-55
2024/01/15 10:58:22;;;;;;;11.95;3.25;;;19.70;53.00;;;;;;5066868;28;20024;-55
2024/01/15 11:00:48;;;;;;;8.93;2.88;;;19.70;53.00;;;;;;5075560;28;20048;-57
2024/01/15 11:03:14;;;;;;;12.55;2.38;;;19.70;53.10;;;;;;5081407;28;20028;-55
2024/01/15 11:05:44;;;;;;;6.85;2.83;;;19.70;53.00;;;;;;5086307;28;20024;-55
2024/01/15 11:08:10;;;;;;;7.30;2.80;;;19.80;53.00;;;;;;5086541;28;20046;-58
2024/01/15 11:10:51;;;;;;;6.45;2.63;;;19.80;53.10;;;;;;5086037;28;20028;-55
2024/01/15 11:13:32;;;;;;;12.55;2.55;;;19.80;52.80;;;;;;5068966;28;20411;-56
2024/01/15 11:16:03;;;;;;;8.07;2.65;;;19.80;52.80;;;;;;5071229;28;20471;-58
2024/01/15 11:18:31;;;;;;;12.48;2.70;;;19.80;53.00;;;;;;5081398;28;20054;-57
2024/01/15 11:21:15;;;;;;;7.45;2.83;;;19.80;53.00;;;;;;5082679;28;20029;-55
2024/01/15 11:23:49;;;;;;;5.88;2.05;;;19.80;53.20;;;;;;5069315;28;20040;-58
2024/01/15 11:26:35;;;;;;;11.40;2.60;;;19.80;53.00;;;;;;5073141;28;20063;-57
2024/01/15 11:29:10;;;;;;;6.72;2.60;;;19.80;52.90;;;;;;5086807;28;20032;-58
2024/01/15 11:31:39;;;;;;;5.57;2.30;;;19.80;52.90;;;;;;5075308;28;20024;-57
2024/01/15 11:34:08;;;;;;;4.72;2.38;;;19.80;53.00;;;;;;5073401;28;20027;-58
2024/01/15 11:36:50;;;;;;;9.65;2.75;;;19.80;52.90;;;;;;5080853;28;20024;-54
2024/01/15 11:39:27;;;;;;;8.63;2.53;;;19.80;52.90;;;;;;5070090;28;20024;-56
2024/01/15 11:42:02;;;;;;;5.18;2.47;;;19.80;52.80;;;;;;5077204;28;20841;-54
2024/01/15 11:44:29;;;;;;;12.68;2.67;;;19.80;52.80;;;;;;5086397;28;20044;-55
2024/01/15 11:47:00;;;;;;;8.20;2.63;;;19.80;52.70;;;;;;5079280;28;20035;-54
2024/01/15 11:50:06;;;;;;;6.57;2.25;;;19.80;52.80;;;;;;5085833;28;20043;-57
2024/01/15 11:52:34;;;;;;;6.60;2.67;;;19.80;52.80;;;;;;5081385;28;20032;-56
2024/01/15 11:55:06;;;;;;;11.23;2.10;;;19.80;52.80;;;;;;5086177;28;20108;-58
2024/01/15 11:57:51;;;;;;;5.57;2.15;;;19.80;52.70;;;;;;5066545;28;20056;-54
2024/01/15 12:00:17;;;;;;;6.32;2.58;;;19.80;52.80;;;;;;5069489;28;20016;-58
2024/01/15 12:02:45;;;;;;;7.03;2.10;;;19.80;52.70;;;;;;5082990;28;20020;-52
2024/01/15 12:05:13;;;;;;;6.05;2.20;;;19.80;52.60;;;;;;5085755;28;20030;-55
2024/01/15 12:07:43;;;;;;;12.70;2.63;;;19.80;52.90;;;;;;5077990;28;20029;-60
2024/01/15 12:10:13;;;;;;;7.85;2.33;;;19.80;53.00;;;;;;5064820;28;20032;-56
2024/01/15 12:12:45;;;;;;;6.40;2.40;;;19.80;52.80;;;;;;5067251;28;20103;-54
2024/01/15 12:15:11;;;;;;;5.70;2.30;;;19.80;52.80;;;;;;5076001;28;20016;-53
2024/01/15 12:17:38;;;;;;;6.32;2.47;;;19.70;52.90;;;;;;5077627;28;20024;-57
2024/01/15 12:20:04;;;;;;;5.53;2.92;;;19.70;53.00;;;;;;5069186;28;20115;-57
2024/01/15 12:22:30;;;;;;;5.63;2.78;;;19.70;52.90;;;;;;5071585;28;20020;-55
2024/01/15 12:24:57;;;;;;;6.88;2.35;;;19.70;52.90;;;;;;5063266;28;20079;-57
2024/01/15 12:27:24;;;;;;;7.00;2.67;;;19.70;52.90;;;;;;5071781;28;20027;-57
2024/01/15 12:29:50;;;;;;;5.57;2.80;;;19.70;53.10;;;;;;5082916;28;20024;-55
2024/01/15 12:32:16;;;;;;;4.75;2.30;;;19.70;52.90;;;;;;5072485;28;20663;-49
2024/01/15 12:34:43;;;;;;;3.65;1.92;;;19.70;53.10;;;;;;5066982;28;20485;-52
2024/01/15 12:37:09;;;;;;;4.50;2.25;;;19.70;53.00;;;;;;5072257;28;20147;-55
2024/01/15 12:39:35;;;;;;;5.53;2.60;;;19.70;52.80;;;;;;5066649;28;20115;-54
2024/01/15 12:42:02;;;;;;;4.18;1.95;;;19.70;52.60;;;;;;5070172;28;20495;-54
2024/01/15 12:44:28;;;;;;;5.28;2.13;;;19.70;52.50;;;;;;5066921;28;20032;-57